createdAt,value
2016-12-12T14:40:48.914Z,7.5
2016-12-12T14:51:03.598Z,7.4
2016-12-12T15:01:17.142Z,7.4
2016-12-12T15:11:32.008Z,7.2
2016-12-12T15:21:45.942Z,7.2
2016-12-12T15:32:00.035Z,7.1
2016-12-12T15:42:15.025Z,7
2016-12-12T16:02:42.368Z,6.7
2016-12-12T16:12:56.642Z,6.6
2016-12-12T16:23:10.251Z,6.7
2016-12-12T16:33:23.887Z,6.5
2016-12-12T16:43:38.355Z,6.5
2016-12-12T16:53:51.803Z,6.5
2016-12-12T17:04:05.061Z,6.4
2016-12-12T17:14:19.347Z,6.4
2016-12-12T17:24:34.144Z,6.3
2016-12-12T17:34:47.707Z,6.2
2016-12-12T17:45:01.470Z,6.4
2016-12-12T17:55:15.799Z,6.3
2016-12-12T18:05:30.668Z,6.5
2016-12-12T18:15:44.730Z,6.4
2016-12-12T18:25:59.591Z,6.5
2016-12-12T18:36:12.723Z,6.6
2016-12-12T18:46:27.521Z,6.6
2016-12-12T18:56:41.100Z,6.4
2016-12-12T19:06:55.747Z,6.4
2016-12-12T19:17:09.964Z,6.5
2016-12-12T19:27:24.041Z,6.3
2016-12-12T19:37:38.078Z,6.3
2016-12-12T19:47:51.972Z,6.3
2016-12-12T19:58:06.419Z,6.3
2016-12-12T20:08:20.174Z,6.2
2016-12-12T20:18:34.534Z,6.1
2016-12-12T20:28:49.007Z,6
2016-12-12T20:39:03.335Z,6.1
2016-12-12T20:49:17.318Z,6.2
2016-12-12T20:59:30.766Z,6.1
2016-12-12T21:09:44.523Z,6.2
2016-12-12T21:19:58.932Z,6.2
2016-12-12T21:30:13.990Z,6.3
2016-12-12T21:40:28.510Z,6.4
2016-12-12T21:50:42.539Z,6.4
2016-12-12T22:00:56.771Z,6.4
2016-12-12T22:11:09.894Z,6.4
2016-12-12T22:21:23.519Z,6.5
2016-12-12T22:31:36.727Z,6.6
2016-12-12T22:41:51.158Z,6.6
2016-12-12T22:52:05.734Z,6.6
2016-12-12T23:02:19.474Z,6.7
2016-12-12T23:12:33.416Z,6.8
2016-12-12T23:22:47.032Z,7
2016-12-12T23:33:01.308Z,7
2016-12-12T23:43:15.959Z,6.9
2016-12-12T23:53:29.151Z,6.8
